sensor_id;sensor_type;location;lat;lon;timestamp;pressure;altitude;pressure_sealevel;temperature;humidity
58373;BME280;44177;43.356;27.672;2023-04-19T00:00:18;97641.78;;;9.70;97.07
58373;BME280;44177;43.356;27.672;2023-04-19T00:02:44;97649.31;;;9.77;97.58
58373;BME280;44177;43.356;27.672;2023-04-19T00:05:09;97654.13;;;9.84;97.44
58373;BME280;44177;43.356;27.672;2023-04-19T00:07:39;97650.41;;;9.92;97.62
58373;BME280;44177;43.356;27.672;2023-04-19T00:10:05;97640.66;;;9.91;97.30
58373;BME280;44177;43.356;27.672;2023-04-19T00:12:31;97637.09;;;9.87;96.87
58373;BME280;44177;43.356;27.672;2023-04-19T00:14:56;97641.38;;;9.88;96.67
58373;BME280;44177;43.356;27.672;2023-04-19T00:17:22;97635.94;;;9.88;96.96
58373;BME280;44177;43.356;27.672;2023-04-19T00:19:47;97634.06;;;9.92;96.70
58373;BME280;44177;43.356;27.672;2023-04-19T00:22:13;97629.69;;;9.87;96.60
58373;BME280;44177;43.356;27.672;2023-04-19T00:24:38;97623.38;;;9.83;97.19
58373;BME280;44177;43.356;27.672;2023-04-19T00:27:03;97611.13;;;9.73;97.53
58373;BME280;44177;43.356;27.672;2023-04-19T00:29:29;97626.81;;;9.80;97.86
58373;BME280;44177;43.356;27.672;2023-04-19T00:31:55;97625.75;;;9.85;98.04
58373;BME280;44177;43.356;27.672;2023-04-19T00:34:20;97621.44;;;9.84;98.36
58373;BME280;44177;43.356;27.672;2023-04-19T00:36:45;97619.16;;;9.86;98.05
58373;BME280;44177;43.356;27.672;2023-04-19T00:39:11;97625.63;;;9.97;98.17
58373;BME280;44177;43.356;27.672;2023-04-19T00:41:37;97614.00;;;10.00;97.93
58373;BME280;44177;43.356;27.672;2023-04-19T00:44:02;97620.34;;;10.04;96.84
58373;BME280;44177;43.356;27.672;2023-04-19T00:46:28;97619.13;;;10.02;96.96
58373;BME280;44177;43.356;27.672;2023-04-19T00:48:53;97622.19;;;10.00;97.29
58373;BME280;44177;43.356;27.672;2023-04-19T00:51:19;97611.28;;;10.00;96.32
58373;BME280;44177;43.356;27.672;2023-04-19T00:53:45;97626.50;;;10.01;96.44
58373;BME280;44177;43.356;27.672;2023-04-19T00:56:12;97614.75;;;9.97;96.44
58373;BME280;44177;43.356;27.672;2023-04-19T00:58:38;97624.66;;;10.05;96.14
58373;BME280;44177;43.356;27.672;2023-04-19T01:01:04;97626.63;;;10.08;95.87
58373;BME280;44177;43.356;27.672;2023-04-19T01:03:30;97628.66;;;10.11;94.94
58373;BME280;44177;43.356;27.672;2023-04-19T01:05:56;97623.47;;;10.06;95.14
58373;BME280;44177;43.356;27.672;2023-04-19T01:08:22;97617.09;;;9.99;95.14
58373;BME280;44177;43.356;27.672;2023-04-19T01:10:48;97628.06;;;10.02;94.84
58373;BME280;44177;43.356;27.672;2023-04-19T01:13:13;97621.34;;;9.96;94.83
58373;BME280;44177;43.356;27.672;2023-04-19T01:15:39;97624.06;;;9.96;95.67
58373;BME280;44177;43.356;27.672;2023-04-19T01:18:04;97619.03;;;9.98;95.46
58373;BME280;44177;43.356;27.672;2023-04-19T01:20:30;97626.50;;;10.01;95.91
58373;BME280;44177;43.356;27.672;2023-04-19T01:22:56;97618.69;;;10.00;95.43
58373;BME280;44177;43.356;27.672;2023-04-19T01:25:21;97609.13;;;9.90;95.24
58373;BME280;44177;43.356;27.672;2023-04-19T01:27:47;97618.16;;;9.94;95.26
58373;BME280;44177;43.356;27.672;2023-04-19T01:30:12;97613.16;;;9.96;94.79
58373;BME280;44177;43.356;27.672;2023-04-19T01:32:38;97606.34;;;9.86;95.17
58373;BME280;44177;43.356;27.672;2023-04-19T01:35:04;97607.56;;;9.89;94.97
58373;BME280;44177;43.356;27.672;2023-04-19T01:37:30;97609.25;;;9.77;95.18
58373;BME280;44177;43.356;27.672;2023-04-19T01:39:55;97605.75;;;9.77;95.58
58373;BME280;44177;43.356;27.672;2023-04-19T01:42:21;97604.00;;;9.69;96.04
58373;BME280;44177;43.356;27.672;2023-04-19T01:44:47;97600.84;;;9.67;96.05
58373;BME280;44177;43.356;27.672;2023-04-19T01:47:12;97602.97;;;9.57;96.34
58373;BME280;44177;43.356;27.672;2023-04-19T01:49:37;97602.41;;;9.68;96.74
58373;BME280;44177;43.356;27.672;2023-04-19T01:52:03;97599.97;;;9.62;96.77
58373;BME280;44177;43.356;27.672;2023-04-19T01:54:28;97603.63;;;9.70;96.36
58373;BME280;44177;43.356;27.672;2023-04-19T01:56:54;97590.72;;;9.67;96.44
58373;BME280;44177;43.356;27.672;2023-04-19T01:59:20;97568.63;;;9.53;96.62
58373;BME280;44177;43.356;27.672;2023-04-19T02:01:45;97589.50;;;9.64;96.90
58373;BME280;44177;43.356;27.672;2023-04-19T02:04:11;97586.16;;;9.71;96.61
58373;BME280;44177;43.356;27.672;2023-04-19T02:06:36;97591.59;;;9.71;96.40
58373;BME280;44177;43.356;27.672;2023-04-19T02:09:02;97577.53;;;9.69;96.29
58373;BME280;44177;43.356;27.672;2023-04-19T02:11:27;97592.47;;;9.75;96.22
58373;BME280;44177;43.356;27.672;2023-04-19T02:13:53;97585.03;;;9.72;96.34
58373;BME280;44177;43.356;27.672;2023-04-19T02:16:18;97586.94;;;9.72;96.33
58373;BME280;44177;43.356;27.672;2023-04-19T02:18:44;97587.31;;;9.70;96.47
58373;BME280;44177;43.356;27.672;2023-04-19T02:21:10;97584.13;;;9.68;96.83
58373;BME280;44177;43.356;27.672;2023-04-19T02:23:36;97582.22;;;9.69;96.84
58373;BME280;44177;43.356;27.672;2023-04-19T02:26:01;97580.72;;;9.71;96.45
58373;BME280;44177;43.356;27.672;2023-04-19T02:28:28;97577.47;;;9.66;96.38
58373;BME280;44177;43.356;27.672;2023-04-19T02:30:54;97582.13;;;9.65;97.17
58373;BME280;44177;43.356;27.672;2023-04-19T02:33:21;97585.19;;;9.63;97.06
58373;BME280;44177;43.356;27.672;2023-04-19T02:35:47;97566.25;;;9.51;97.38
58373;BME280;44177;43.356;27.672;2023-04-19T02:38:12;97578.91;;;9.59;97.43
58373;BME280;44177;43.356;27.672;2023-04-19T02:40:38;97578.53;;;9.61;97.26
58373;BME280;44177;43.356;27.672;2023-04-19T02:43:03;97574.94;;;9.57;97.52
58373;BME280;44177;43.356;27.672;2023-04-19T02:45:29;97576.25;;;9.63;97.28
58373;BME280;44177;43.356;27.672;2023-04-19T02:47:54;97573.44;;;9.59;97.09
58373;BME280;44177;43.356;27.672;2023-04-19T02:50:20;97570.88;;;9.67;97.04
58373;BME280;44177;43.356;27.672;2023-04-19T02:52:45;97573.88;;;9.61;96.79
58373;BME280;44177;43.356;27.672;2023-04-19T02:55:11;97568.47;;;9.45;97.31
58373;BME280;44177;43.356;27.672;2023-04-19T02:57:36;97575.22;;;9.52;97.56
58373;BME280;44177;43.356;27.672;2023-04-19T03:00:02;97566.09;;;9.44;97.83
58373;BME280;44177;43.356;27.672;2023-04-19T03:02:30;97568.13;;;9.47;97.41
58373;BME280;44177;43.356;27.672;2023-04-19T03:04:55;97579.44;;;9.49;97.52
58373;BME280;44177;43.356;27.672;2023-04-19T03:07:21;97569.19;;;9.42;97.72
58373;BME280;44177;43.356;27.672;2023-04-19T03:09:47;97564.53;;;9.43;97.67
58373;BME280;44177;43.356;27.672;2023-04-19T03:12:12;97568.47;;;9.45;97.49
58373;BME280;44177;43.356;27.672;2023-04-19T03:14:38;97560.22;;;9.42;97.48
58373;BME280;44177;43.356;27.672;2023-04-19T03:17:03;97563.81;;;9.46;97.39
58373;BME280;44177;43.356;27.672;2023-04-19T03:19:29;97570.22;;;9.54;97.68
58373;BME280;44177;43.356;27.672;2023-04-19T03:21:54;97560.59;;;9.60;96.95
58373;BME280;44177;43.356;27.672;2023-04-19T03:24:26;97579.66;;;9.60;96.63
58373;BME280;44177;43.356;27.672;2023-04-19T03:26:53;97573.38;;;9.56;97.06
58373;BME280;44177;43.356;27.672;2023-04-19T03:29:19;97573.53;;;9.63;96.50
58373;BME280;44177;43.356;27.672;2023-04-19T03:31:44;97570.03;;;9.62;95.98
58373;BME280;44177;43.356;27.672;2023-04-19T03:34:10;97564.91;;;9.61;96.01
58373;BME280;44177;43.356;27.672;2023-04-19T03:36:35;97556.00;;;9.44;96.14
58373;BME280;44177;43.356;27.672;2023-04-19T03:39:02;97567.78;;;9.48;96.09
58373;BME280;44177;43.356;27.672;2023-04-19T03:41:28;97559.06;;;9.43;96.66
58373;BME280;44177;43.356;27.672;2023-04-19T03:43:53;97563.38;;;9.44;96.85
58373;BME280;44177;43.356;27.672;2023-04-19T03:46:19;97561.28;;;9.37;96.89
58373;BME280;44177;43.356;27.672;2023-04-19T03:48:44;97563.75;;;9.42;97.14
58373;BME280;44177;43.356;27.672;2023-04-19T03:51:10;97561.88;;;9.46;96.55
58373;BME280;44177;43.356;27.672;2023-04-19T03:53:37;97569.28;;;9.46;96.65
58373;BME280;44177;43.356;27.672;2023-04-19T03:56:02;97567.78;;;9.48;96.78
58373;BME280;44177;43.356;27.672;2023-04-19T03:58:28;97562.50;;;9.40;96.04
58373;BME280;44177;43.356;27.672;2023-04-19T04:00:53;97574.47;;;9.35;96.38
58373;BME280;44177;43.356;27.672;2023-04-19T04:03:19;97573.31;;;9.36;96.24
58373;BME280;44177;43.356;27.672;2023-04-19T04:05:44;97575.53;;;9.30;96.77
58373;BME280;44177;43.356;27.672;2023-04-19T04:08:10;97569.72;;;9.32;96.92
58373;BME280;44177;43.356;27.672;2023-04-19T04:10:35;97579.91;;;9.35;97.25
58373;BME280;44177;43.356;27.672;2023-04-19T04:13:01;97579.19;;;9.38;97.06
58373;BME280;44177;43.356;27.672;2023-04-19T04:15:26;97581.81;;;9.51;96.80
58373;BME280;44177;43.356;27.672;2023-04-19T04:17:52;97589.63;;;9.52;96.14
58373;BME280;44177;43.356;27.672;2023-04-19T04:20:17;97584.41;;;9.63;95.69
58373;BME280;44177;43.356;27.672;2023-04-19T04:22:43;97582.84;;;9.62;95.04
58373;BME280;44177;43.356;27.672;2023-04-19T04:25:10;97579.81;;;9.67;95.03
58373;BME280;44177;43.356;27.672;2023-04-19T04:27:36;97584.13;;;9.68;94.19
58373;BME280;44177;43.356;27.672;2023-04-19T04:30:02;97587.59;;;9.65;94.16
58373;BME280;44177;43.356;27.672;2023-04-19T04:32:28;97587.28;;;9.51;94.40
58373;BME280;44177;43.356;27.672;2023-04-19T04:34:54;97593.41;;;9.47;94.47
58373;BME280;44177;43.356;27.672;2023-04-19T04:37:19;97588.25;;;9.42;94.72
58373;BME280;44177;43.356;27.672;2023-04-19T04:39:45;97587.81;;;9.40;95.15
58373;BME280;44177;43.356;27.672;2023-04-19T04:42:10;97582.34;;;9.40;95.00
58373;BME280;44177;43.356;27.672;2023-04-19T04:44:36;97586.50;;;9.34;95.30
58373;BME280;44177;43.356;27.672;2023-04-19T04:47:03;97592.88;;;9.42;95.48
58373;BME280;44177;43.356;27.672;2023-04-19T04:49:29;97595.44;;;9.35;95.36
58373;BME280;44177;43.356;27.672;2023-04-19T04:51:55;97591.50;;;9.32;94.93
58373;BME280;44177;43.356;27.672;2023-04-19T04:54:20;97593.25;;;9.24;95.35
58373;BME280;44177;43.356;27.672;2023-04-19T04:56:46;97598.53;;;9.33;95.11
58373;BME280;44177;43.356;27.672;2023-04-19T04:59:11;97583.94;;;9.25;95.32
58373;BME280;44177;43.356;27.672;2023-04-19T05:01:37;97604.50;;;9.23;95.10
58373;BME280;44177;43.356;27.672;2023-04-19T05:04:02;97595.63;;;9.26;95.53
58373;BME280;44177;43.356;27.672;2023-04-19T05:06:28;97604.66;;;9.30;95.67
58373;BME280;44177;43.356;27.672;2023-04-19T05:08:53;97595.34;;;9.31;95.54
58373;BME280;44177;43.356;27.672;2023-04-19T05:11:19;97604.06;;;9.37;95.76
58373;BME280;44177;43.356;27.672;2023-04-19T05:13:44;97595.00;;;9.32;95.83
58373;BME280;44177;43.356;27.672;2023-04-19T05:16:10;97608.09;;;9.27;95.80
58373;BME280;44177;43.356;27.672;2023-04-19T05:18:35;97597.22;;;9.27;96.33
58373;BME280;44177;43.356;27.672;2023-04-19T05:21:01;97590.97;;;9.26;95.94
58373;BME280;44177;43.356;27.672;2023-04-19T05:23:26;97593.59;;;9.23;95.07
58373;BME280;44177;43.356;27.672;2023-04-19T05:25:52;97600.34;;;9.29;95.21
58373;BME280;44177;43.356;27.672;2023-04-19T05:28:17;97607.75;;;9.28;95.35
58373;BME280;44177;43.356;27.672;2023-04-19T05:30:43;97610.63;;;9.20;95.21
58373;BME280;44177;43.356;27.672;2023-04-19T05:33:08;97599.31;;;9.18;95.49
58373;BME280;44177;43.356;27.672;2023-04-19T05:35:34;97602.47;;;9.04;96.23
58373;BME280;44177;43.356;27.672;2023-04-19T05:37:59;97608.00;;;9.07;96.32
58373;BME280;44177;43.356;27.672;2023-04-19T05:40:25;97602.84;;;9.02;96.51
58373;BME280;44177;43.356;27.672;2023-04-19T05:42:50;97606.06;;;8.92;96.87
58373;BME280;44177;43.356;27.672;2023-04-19T05:45:16;97594.72;;;8.74;97.64
58373;BME280;44177;43.356;27.672;2023-04-19T05:47:43;97599.81;;;8.75;98.38
58373;BME280;44177;43.356;27.672;2023-04-19T05:50:08;97602.72;;;8.82;98.66
58373;BME280;44177;43.356;27.672;2023-04-19T05:52:34;97601.31;;;8.89;98.12
58373;BME280;44177;43.356;27.672;2023-04-19T05:54:59;97604.31;;;8.83;97.67
58373;BME280;44177;43.356;27.672;2023-04-19T05:57:25;97607.38;;;8.82;98.33
58373;BME280;44177;43.356;27.672;2023-04-19T05:59:51;97599.13;;;8.78;98.03
58373;BME280;44177;43.356;27.672;2023-04-19T06:02:17;97608.97;;;8.83;97.96
58373;BME280;44177;43.356;27.672;2023-04-19T06:04:42;97604.56;;;8.78;98.10
58373;BME280;44177;43.356;27.672;2023-04-19T06:07:08;97597.91;;;8.76;98.51
58373;BME280;44177;43.356;27.672;2023-04-19T06:09:33;97606.94;;;8.80;98.54
58373;BME280;44177;43.356;27.672;2023-04-19T06:11:59;97594.09;;;8.80;97.93
58373;BME280;44177;43.356;27.672;2023-04-19T06:14:26;97604.91;;;8.77;98.21
58373;BME280;44177;43.356;27.672;2023-04-19T06:16:53;97606.16;;;8.79;98.71
58373;BME280;44177;43.356;27.672;2023-04-19T06:19:18;97601.75;;;8.75;99.24
58373;BME280;44177;43.356;27.672;2023-04-19T06:21:43;97597.59;;;8.65;99.64
58373;BME280;44177;43.356;27.672;2023-04-19T06:24:10;97607.59;;;8.61;99.96
58373;BME280;44177;43.356;27.672;2023-04-19T06:26:35;97600.84;;;8.71;99.78
58373;BME280;44177;43.356;27.672;2023-04-19T06:29:02;97599.19;;;8.66;99.67
58373;BME280;44177;43.356;27.672;2023-04-19T06:31:28;97612.00;;;8.81;99.49
58373;BME280;44177;43.356;27.672;2023-04-19T06:33:53;97615.44;;;8.78;99.63
58373;BME280;44177;43.356;27.672;2023-04-19T06:36:18;97615.97;;;8.84;100.00
58373;BME280;44177;43.356;27.672;2023-04-19T06:38:44;97605.88;;;8.84;99.72
58373;BME280;44177;43.356;27.672;2023-04-19T06:41:10;97608.97;;;8.83;99.47
58373;BME280;44177;43.356;27.672;2023-04-19T06:43:36;97615.00;;;8.76;99.24
58373;BME280;44177;43.356;27.672;2023-04-19T06:46:02;97617.53;;;8.85;98.94
58373;BME280;44177;43.356;27.672;2023-04-19T06:48:29;97611.41;;;8.88;99.09
58373;BME280;44177;43.356;27.672;2023-04-19T06:50:55;97613.28;;;9.00;97.44
58373;BME280;44177;43.356;27.672;2023-04-19T06:53:21;97615.38;;;8.91;96.92
58373;BME280;44177;43.356;27.672;2023-04-19T06:55:46;97630.38;;;9.00;97.36
58373;BME280;44177;43.356;27.672;2023-04-19T06:58:12;97626.34;;;8.94;98.02
58373;BME280;44177;43.356;27.672;2023-04-19T07:00:37;97626.50;;;9.01;97.13
58373;BME280;44177;43.356;27.672;2023-04-19T07:03:03;97623.25;;;8.96;98.04
58373;BME280;44177;43.356;27.672;2023-04-19T07:05:29;97626.19;;;9.03;98.51
58373;BME280;44177;43.356;27.672;2023-04-19T07:07:56;97625.03;;;9.04;98.28
58373;BME280;44177;43.356;27.672;2023-04-19T07:10:21;97628.19;;;9.06;97.42
58373;BME280;44177;43.356;27.672;2023-04-19T07:12:47;97632.22;;;9.12;98.22
58373;BME280;44177;43.356;27.672;2023-04-19T07:15:12;97629.25;;;9.18;96.94
58373;BME280;44177;43.356;27.672;2023-04-19T07:17:38;97637.06;;;9.19;97.08
58373;BME280;44177;43.356;27.672;2023-04-19T07:20:04;97637.97;;;9.23;96.33
58373;BME280;44177;43.356;27.672;2023-04-19T07:22:31;97642.59;;;9.39;96.30
58373;BME280;44177;43.356;27.672;2023-04-19T07:24:57;97644.00;;;9.48;96.33
58373;BME280;44177;43.356;27.672;2023-04-19T07:27:23;97642.16;;;9.37;95.59
58373;BME280;44177;43.356;27.672;2023-04-19T07:29:48;97645.66;;;9.37;96.21
58373;BME280;44177;43.356;27.672;2023-04-19T07:32:14;97637.31;;;9.30;96.23
58373;BME280;44177;43.356;27.672;2023-04-19T07:34:40;97650.41;;;9.40;95.62
58373;BME280;44177;43.356;27.672;2023-04-19T07:37:06;97659.19;;;9.50;95.59
58373;BME280;44177;43.356;27.672;2023-04-19T07:39:32;97655.84;;;9.56;94.93
58373;BME280;44177;43.356;27.672;2023-04-19T07:41:58;97661.19;;;9.53;95.32
58373;BME280;44177;43.356;27.672;2023-04-19T07:44:24;97663.84;;;9.49;94.84
58373;BME280;44177;43.356;27.672;2023-04-19T07:46:50;97658.75;;;9.47;93.86
58373;BME280;44177;43.356;27.672;2023-04-19T07:49:15;97663.94;;;9.37;94.51
58373;BME280;44177;43.356;27.672;2023-04-19T07:51:41;97653.81;;;9.37;94.99
58373;BME280;44177;43.356;27.672;2023-04-19T07:54:06;97659.88;;;9.46;94.44
58373;BME280;44177;43.356;27.672;2023-04-19T07:56:32;97653.81;;;9.37;94.14
58373;BME280;44177;43.356;27.672;2023-04-19T07:59:00;97663.56;;;9.38;94.26
58373;BME280;44177;43.356;27.672;2023-04-19T08:01:26;97651.91;;;9.38;94.62
58373;BME280;44177;43.356;27.672;2023-04-19T08:03:51;97662.63;;;9.46;94.52
58373;BME280;44177;43.356;27.672;2023-04-19T08:06:17;97654.16;;;9.52;94.76
58373;BME280;44177;43.356;27.672;2023-04-19T08:08:42;97660.50;;;9.56;93.36
58373;BME280;44177;43.356;27.672;2023-04-19T08:11:08;97654.34;;;9.59;93.11
58373;BME280;44177;43.356;27.672;2023-04-19T08:13:33;97654.16;;;9.52;94.10
58373;BME280;44177;43.356;27.672;2023-04-19T08:15:59;97659.78;;;9.59;94.48
58373;BME280;44177;43.356;27.672;2023-04-19T08:18:24;97662.63;;;9.62;94.74
58373;BME280;44177;43.356;27.672;2023-04-19T08:20:50;97632.50;;;9.39;93.73
58373;BME280;44177;43.356;27.672;2023-04-19T08:23:16;97671.28;;;9.68;93.11
58373;BME280;44177;43.356;27.672;2023-04-19T08:25:41;97668.47;;;9.64;92.93
58373;BME280;44177;43.356;27.672;2023-04-19T08:28:07;97674.44;;;9.70;93.77
58373;BME280;44177;43.356;27.672;2023-04-19T08:30:32;97666.38;;;9.74;93.97
58373;BME280;44177;43.356;27.672;2023-04-19T08:32:58;97673.41;;;9.75;94.55
58373;BME280;44177;43.356;27.672;2023-04-19T08:35:23;97663.19;;;9.88;93.24
58373;BME280;44177;43.356;27.672;2023-04-19T08:37:49;97656.31;;;9.94;92.79
58373;BME280;44177;43.356;27.672;2023-04-19T08:40:15;97667.00;;;10.03;92.85
58373;BME280;44177;43.356;27.672;2023-04-19T08:42:41;97668.25;;;10.25;91.54
58373;BME280;44177;43.356;27.672;2023-04-19T08:45:07;97667.56;;;10.28;91.31
58373;BME280;44177;43.356;27.672;2023-04-19T08:47:35;97676.44;;;10.25;90.11
58373;BME280;44177;43.356;27.672;2023-04-19T08:50:03;97672.56;;;10.26;90.01
58373;BME280;44177;43.356;27.672;2023-04-19T08:52:32;97664.47;;;10.10;91.30
58373;BME280;44177;43.356;27.672;2023-04-19T08:55:03;97671.53;;;10.15;91.64
58373;BME280;44177;43.356;27.672;2023-04-19T08:57:30;97667.03;;;10.22;91.33
58373;BME280;44177;43.356;27.672;2023-04-19T08:59:57;97669.00;;;10.22;91.06
58373;BME280;44177;43.356;27.672;2023-04-19T09:02:23;97672.94;;;10.24;90.50
58373;BME280;44177;43.356;27.672;2023-04-19T09:04:49;97677.25;;;10.25;90.66
58373;BME280;44177;43.356;27.672;2023-04-19T09:07:25;97681.72;;;9.98;90.42
58373;BME280;44177;43.356;27.672;2023-04-19T09:10:12;97678.72;;;10.03;90.86
58373;BME280;44177;43.356;27.672;2023-04-19T09:12:39;97690.31;;;10.00;91.83
58373;BME280;44177;43.356;27.672;2023-04-19T09:15:06;97685.00;;;10.07;91.22
58373;BME280;44177;43.356;27.672;2023-04-19T09:17:38;97685.47;;;10.09;90.40
58373;BME280;44177;43.356;27.672;2023-04-19T09:20:05;97683.75;;;10.21;91.31
58373;BME280;44177;43.356;27.672;2023-04-19T09:22:32;97683.84;;;10.24;91.00
58373;BME280;44177;43.356;27.672;2023-04-19T09:24:58;97679.16;;;10.25;90.74
58373;BME280;44177;43.356;27.672;2023-04-19T09:27:35;97687.19;;;10.18;90.97
58373;BME280;44177;43.356;27.672;2023-04-19T09:30:02;97682.44;;;10.15;90.90
58373;BME280;44177;43.356;27.672;2023-04-19T09:32:42;97691.19;;;10.04;91.72
58373;BME280;44177;43.356;27.672;2023-04-19T09:35:09;97679.69;;;9.95;91.87
58373;BME280;44177;43.356;27.672;2023-04-19T09:37:35;97682.34;;;9.75;91.93
58373;BME280;44177;43.356;27.672;2023-04-19T09:40:01;97682.50;;;9.83;92.56
58373;BME280;44177;43.356;27.672;2023-04-19T09:42:45;97685.44;;;9.90;92.79
58373;BME280;44177;43.356;27.672;2023-04-19T09:45:11;97687.25;;;9.86;92.95
58373;BME280;44177;43.356;27.672;2023-04-19T09:47:37;97684.34;;;9.94;93.17
58373;BME280;44177;43.356;27.672;2023-04-19T09:50:03;97681.00;;;10.01;92.67
58373;BME280;44177;43.356;27.672;2023-04-19T09:52:31;97683.03;;;10.24;91.73
58373;BME280;44177;43.356;27.672;2023-04-19T09:54:59;97676.59;;;10.13;90.09
58373;BME280;44177;43.356;27.672;2023-04-19T09:57:25;97681.19;;;10.28;91.27
58373;BME280;44177;43.356;27.672;2023-04-19T09:59:51;97682.78;;;10.29;90.93
58373;BME280;44177;43.356;27.672;2023-04-19T10:02:17;97678.47;;;10.28;88.67
58373;BME280;44177;43.356;27.672;2023-04-19T10:04:44;97678.81;;;10.26;91.13
58373;BME280;44177;43.356;27.672;2023-04-19T10:07:09;97679.75;;;10.34;91.65
58373;BME280;44177;43.356;27.672;2023-04-19T10:09:35;97667.28;;;10.33;91.42
58373;BME280;44177;43.356;27.672;2023-04-19T10:12:02;97674.03;;;10.39;89.30
58373;BME280;44177;43.356;27.672;2023-04-19T10:14:32;97669.41;;;10.40;90.06
58373;BME280;44177;43.356;27.672;2023-04-19T10:17:00;97682.38;;;10.47;90.27
58373;BME280;44177;43.356;27.672;2023-04-19T10:19:27;97671.06;;;10.45;91.71
58373;BME280;44177;43.356;27.672;2023-04-19T10:21:53;97679.38;;;10.52;89.88
58373;BME280;44177;43.356;27.672;2023-04-19T10:24:21;97683.69;;;10.53;90.13
58373;BME280;44177;43.356;27.672;2023-04-19T10:27:12;97677.34;;;10.49;90.30
58373;BME280;44177;43.356;27.672;2023-04-19T10:32:18;97673.63;;;10.37;88.30
58373;BME280;44177;43.356;27.672;2023-04-19T10:34:44;97673.00;;;10.28;89.86
58373;BME280;44177;43.356;27.672;2023-04-19T10:37:11;97674.59;;;10.29;90.31
58373;BME280;44177;43.356;27.672;2023-04-19T10:39:39;97677.47;;;10.36;89.45
58373;BME280;44177;43.356;27.672;2023-04-19T10:42:05;97670.69;;;10.30;89.35
58373;BME280;44177;43.356;27.672;2023-04-19T10:44:31;97680.75;;;10.26;89.89
58373;BME280;44177;43.356;27.672;2023-04-19T10:46:58;97685.91;;;10.11;90.80
58373;BME280;44177;43.356;27.672;2023-04-19T10:49:27;97676.28;;;9.98;91.50
58373;BME280;44177;43.356;27.672;2023-04-19T10:51:52;97687.94;;;9.99;91.60
58373;BME280;44177;43.356;27.672;2023-04-19T10:54:33;97686.97;;;9.91;93.13
58373;BME280;44177;43.356;27.672;2023-04-19T10:57:07;97690.00;;;9.86;93.04
58373;BME280;44177;43.356;27.672;2023-04-19T10:59:34;97685.78;;;9.72;92.62
58373;BME280;44177;43.356;27.672;2023-04-19T11:02:03;97684.81;;;9.64;94.03
58373;BME280;44177;43.356;27.672;2023-04-19T11:09:24;97686.75;;;9.64;94.33
58373;BME280;44177;43.356;27.672;2023-04-19T11:12:03;97691.06;;;9.65;94.48
58373;BME280;44177;43.356;27.672;2023-04-19T11:14:30;97690.78;;;9.70;95.28
58373;BME280;44177;43.356;27.672;2023-04-19T11:16:57;97674.81;;;9.69;94.56
58373;BME280;44177;43.356;27.672;2023-04-19T11:19:23;97685.22;;;9.83;93.59
58373;BME280;44177;43.356;27.672;2023-04-19T11:21:49;97691.72;;;9.94;93.48
58373;BME280;44177;43.356;27.672;2023-04-19T11:24:14;97691.53;;;10.03;93.29
58373;BME280;44177;43.356;27.672;2023-04-19T11:26:43;97690.22;;;9.96;92.92
58373;BME280;44177;43.356;27.672;2023-04-19T11:29:09;97686.56;;;9.89;93.49
58373;BME280;44177;43.356;27.672;2023-04-19T11:31:35;97684.00;;;9.96;94.53
58373;BME280;44177;43.356;27.672;2023-04-19T11:34:01;97693.84;;;10.01;92.79
58373;BME280;44177;43.356;27.672;2023-04-19T11:36:27;97688.03;;;10.02;93.30
58373;BME280;44177;43.356;27.672;2023-04-19T11:38:53;97695.34;;;9.98;93.40
58373;BME280;44177;43.356;27.672;2023-04-19T11:41:19;97659.50;;;9.80;92.93
58373;BME280;44177;43.356;27.672;2023-04-19T11:43:45;97683.34;;;10.03;93.52
58373;BME280;44177;43.356;27.672;2023-04-19T11:46:12;97685.00;;;10.07;92.67
58373;BME280;44177;43.356;27.672;2023-04-19T11:48:38;97678.94;;;10.14;93.80
58373;BME280;44177;43.356;27.672;2023-04-19T11:51:14;97682.59;;;10.38;93.82
58373;BME280;44177;43.356;27.672;2023-04-19T11:53:40;97680.09;;;10.68;92.42
58373;BME280;44177;43.356;27.672;2023-04-19T11:56:06;97677.00;;;11.13;91.98
58373;BME280;44177;43.356;27.672;2023-04-19T11:58:41;97669.28;;;11.42;89.13
58373;BME280;44177;43.356;27.672;2023-04-19T12:01:17;97672.50;;;11.71;89.98
58373;BME280;44177;43.356;27.672;2023-04-19T12:03:48;97655.16;;;12.13;86.55
58373;BME280;44177;43.356;27.672;2023-04-19T12:06:16;97655.84;;;12.37;84.94
58373;BME280;44177;43.356;27.672;2023-04-19T12:08:44;97658.06;;;12.58;84.02
58373;BME280;44177;43.356;27.672;2023-04-19T12:11:09;97658.69;;;12.78;82.69
58373;BME280;44177;43.356;27.672;2023-04-19T12:13:35;97651.97;;;13.06;82.54
58373;BME280;44177;43.356;27.672;2023-04-19T12:16:01;97643.69;;;13.43;81.68
58373;BME280;44177;43.356;27.672;2023-04-19T12:18:27;97642.91;;;13.99;79.73
58373;BME280;44177;43.356;27.672;2023-04-19T12:20:52;97647.47;;;14.50;77.73
58373;BME280;44177;43.356;27.672;2023-04-19T12:23:19;97633.38;;;14.56;77.38
58373;BME280;44177;43.356;27.672;2023-04-19T12:25:46;97633.75;;;14.50;75.08
58373;BME280;44177;43.356;27.672;2023-04-19T12:28:13;97635.25;;;14.30;73.34
58373;BME280;44177;43.356;27.672;2023-04-19T12:30:39;97627.47;;;14.46;75.61
58373;BME280;44177;43.356;27.672;2023-04-19T12:33:06;97630.56;;;14.41;75.45
58373;BME280;44177;43.356;27.672;2023-04-19T12:35:32;97642.38;;;14.45;76.39
58373;BME280;44177;43.356;27.672;2023-04-19T12:37:58;97632.97;;;14.46;75.25
58373;BME280;44177;43.356;27.672;2023-04-19T12:40:25;97632.97;;;14.46;74.53
58373;BME280;44177;43.356;27.672;2023-04-19T12:42:51;97630.53;;;14.30;74.50
58373;BME280;44177;43.356;27.672;2023-04-19T12:45:17;97627.41;;;14.32;77.55
58373;BME280;44177;43.356;27.672;2023-04-19T12:47:44;97618.34;;;14.20;74.79
58373;BME280;44177;43.356;27.672;2023-04-19T12:50:12;97623.81;;;14.20;75.47
58373;BME280;44177;43.356;27.672;2023-04-19T12:52:38;97626.56;;;14.20;74.34
58373;BME280;44177;43.356;27.672;2023-04-19T12:55:04;97616.31;;;14.10;73.99
58373;BME280;44177;43.356;27.672;2023-04-19T12:57:30;97623.34;;;14.04;74.42
58373;BME280;44177;43.356;27.672;2023-04-19T12:59:55;97616.13;;;13.74;74.78